Weather at La Aurora Airport

Public forecast

Using degrees Celsius for public forecast. Weather courtesy of forecast.io.

Current aviation weather report (METAR) for La Aurora Airport

2024/06/14 11:00 (retrieved 39 minutes ago)

MGGT 141100Z 18004KT 9999 BKN012 OVC080 19/18 Q1019 A3009

Aviation forecast (TAF) for La Aurora Airport

2024/06/14 06:16 (retrieved 5 hours ago)

TAF MGGT 140500Z 1406/1506 18006KT 9999 SCT014 BKN080 TX26/1420Z TN15/1412Z BECMG 1414/1416 18010KT SCT018 TEMPO 1422/1506 8000 TSRA SCT020TCU FEW025CB BECMG 1502/1504 03004KT SCT016